Louis Cristal — 9HA2978 — position and weather

sailwx.info

Track history (hours):
 
Tides and Currents Weather Stations Pressure Air Temp Water Temp Dewpoint Dewpoint Depression Visibility Wind Speed Wind Dir Waves Ship Positions

Louis Cristal

Last reported at 2014-Oct-21 00:30 UTC. Time now 2014-Oct-21 11:53 UTC.
Position N 35°33' E 025°43'.

Length 162 m; draft 6 m.

Type: Passenger vessel. MMSI: 229001000.

Date/timePositionNaut miles runAvg speedWind from/ knotsBaromVisibWave heightAir tempDewpointWater temp
2014-Oct-21 00:30N 35°33' E 025°43'5 5.6
2014-Oct-20 23:33N 35°38' E 025°40'6 5.6
2014-Oct-20 22:33N 35°43' E 025°38'6 5.7
2014-Oct-20 21:32N 35°49' E 025°35'6 5.8
2014-Oct-20 20:33N 35°54' E 025°33'6 5.8
2014-Oct-20 19:33N 35°59' E 025°30'6 5.8
2014-Oct-20 18:33N 36°05' E 025°27'6 6.2
2014-Oct-20 17:33N 36°10' E 025°25'6 6.0
2014-Oct-20 16:33N 36°16' E 025°22'6 6.1
2014-Oct-20 15:33N 36°22' E 025°21'4 4.2
2014-Oct-20 14:33N 36°25' E 025°25'0 0.3
2014-Oct-20 13:33N 36°25' E 025°25'0 0.1
2014-Oct-20 12:33N 36°25' E 025°25'0 0.2
2014-Oct-20 11:33N 36°25' E 025°25'0 0.1
2014-Oct-20 10:32N 36°25' E 025°25'0 0.1
2014-Oct-20 09:33N 36°25' E 025°25'0 0.4
2014-Oct-20 08:33N 36°25' E 025°25'0 0.4
2014-Oct-20 07:32N 36°25' E 025°25'0 0.2
2014-Oct-20 06:33N 36°26' E 025°25'7 6.5
2014-Oct-20 05:33N 36°32' E 025°25'1211.9
2014-Oct-20 04:34N 36°38' E 025°38'1211.7
2014-Oct-20 03:33N 36°44' E 025°51'1211.7
2014-Oct-20 02:33N 36°50' E 026°03'274 8.3
2014-Oct-18 17:31N 40°54' E 028°42'1514.1
2014-Oct-18 16:29N 41°01' E 028°59'116 6.4
2014-Oct-17 22:09N 40°19' E 026°36'3613.9
2014-Oct-17 19:32N 39°57' E 025°58'1716.5
2014-Oct-17 18:32N 39°43' E 025°46'11916.7
2014-Oct-17 11:25N 37°57' E 024°36'1517.1
2014-Oct-17 10:32N 37°50' E 024°20'16 2.0
2014-Oct-17 02:17N 37°39' E 024°05'1110.5
2014-Oct-17 01:13N 37°31' E 024°15'710.7
2014-Oct-17 00:33N 37°31' E 024°24'1111.4
2014-Oct-16 23:33N 37°31' E 024°38'1411.7
2014-Oct-16 22:22N 37°32' E 024°56'911.4
2014-Oct-16 21:33N 37°29' E 025°07'10 9.7
2014-Oct-16 20:32N 37°28' E 025°19'0 0.0
2014-Oct-16 19:32N 37°28' E 025°19'0 0.0
2014-Oct-16 18:32N 37°28' E 025°19'0 0.0
2014-Oct-16 17:34N 37°28' E 025°19'0 0.0
2014-Oct-16 16:32N 37°28' E 025°19'0 0.0
2014-Oct-16 15:32N 37°28' E 025°19'0 0.0
2014-Oct-16 14:32N 37°28' E 025°19'5 5.3
2014-Oct-16 13:32N 37°33' E 025°21'1414.5
2014-Oct-16 12:33N 37°43' E 025°34'1514.8
2014-Oct-16 11:33N 37°54' E 025°47'1514.8
2014-Oct-16 10:32N 38°04' E 026°00'33 3.3
2014-Oct-16 00:33N 37°42' E 026°32'1515.1
2014-Oct-15 23:33N 37°30' E 026°43'1515.1
2014-Oct-15 22:33N 37°18' E 026°53'1615.9
2014-Oct-15 21:33N 37°04' E 027°03'1816.4
2014-Oct-15 20:26N 36°55' E 027°22'1415.8
2014-Oct-15 19:33N 36°41' E 027°20'103 2.4
2014-Oct-14 00:33N 35°33' E 025°43'6 5.9
2014-Oct-13 23:34N 35°39' E 025°40'6 5.9
2014-Oct-13 22:34N 35°44' E 025°37'6 5.9
2014-Oct-13 21:33N 35°50' E 025°35'6 5.9
2014-Oct-13 20:34N 35°55' E 025°32'6 5.6
2014-Oct-13 19:34N 36°00' E 025°29'6 5.7
2014-Oct-13 18:34N 36°06' E 025°27'6 5.6
2014-Oct-13 17:34N 36°11' E 025°24'6 5.5
2014-Oct-13 16:33N 36°16' E 025°22'7 6.7
2014-Oct-13 15:34N 36°23' E 025°23'3 2.5
2014-Oct-13 14:34N 36°25' E 025°25'0 0.0
2014-Oct-13 13:33N 36°25' E 025°25'0 0.0
2014-Oct-13 12:33N 36°25' E 025°25'0 0.0
2014-Oct-13 11:33N 36°25' E 025°25'0 0.0
2014-Oct-13 10:33N 36°25' E 025°25'0 0.0
2014-Oct-13 09:33N 36°25' E 025°25'0 0.0
2014-Oct-13 08:33N 36°25' E 025°25'0 0.0
2014-Oct-13 07:33N 36°25' E 025°25'0 0.0
2014-Oct-13 06:34N 36°25' E 025°25'0 0.4
2014-Oct-13 05:33N 36°25' E 025°25'9 8.8
2014-Oct-13 04:33N 36°34' E 025°26'1212.3
2014-Oct-13 03:33N 36°43' E 025°36'1312.5
2014-Oct-13 02:33N 36°52' E 025°47'1212.2
2014-Oct-13 01:33N 37°00' E 025°58'1212.2
2014-Oct-13 00:33N 37°08' E 026°10'1211.5
2014-Oct-12 23:32N 37°16' E 026°21'161 7.7
2014-Oct-12 02:33N 39°56' E 025°55'  
Track history (hours):
 
Tides and Currents Weather Stations Pressure Air Temp Water Temp Dewpoint Dewpoint Depression Visibility Wind Speed Wind Dir Waves Ship Positions

Louis Cristal

Last reported at 2014-Oct-21 00:30 UTC. Time now 2014-Oct-21 11:53 UTC.
Position N 35°33' E 025°43'.

Length 162 m; draft 6 m.

Type: Passenger vessel. MMSI: 229001000.

Date/timePositionNaut miles runAvg speedWind from/ knotsBaromVisibWave heightAir tempDewpointWater temp
2014-Oct-21 00:30N 35°33' E 025°43'5 5.6
2014-Oct-20 23:33N 35°38' E 025°40'6 5.6
2014-Oct-20 22:33N 35°43' E 025°38'6 5.7
2014-Oct-20 21:32N 35°49' E 025°35'6 5.8
2014-Oct-20 20:33N 35°54' E 025°33'6 5.8
2014-Oct-20 19:33N 35°59' E 025°30'6 5.8
2014-Oct-20 18:33N 36°05' E 025°27'6 6.2
2014-Oct-20 17:33N 36°10' E 025°25'6 6.0
2014-Oct-20 16:33N 36°16' E 025°22'6 6.1
2014-Oct-20 15:33N 36°22' E 025°21'4 4.2
2014-Oct-20 14:33N 36°25' E 025°25'0 0.3
2014-Oct-20 13:33N 36°25' E 025°25'0 0.1
2014-Oct-20 12:33N 36°25' E 025°25'0 0.2
2014-Oct-20 11:33N 36°25' E 025°25'0 0.1
2014-Oct-20 10:32N 36°25' E 025°25'0 0.1
2014-Oct-20 09:33N 36°25' E 025°25'0 0.4
2014-Oct-20 08:33N 36°25' E 025°25'0 0.4
2014-Oct-20 07:32N 36°25' E 025°25'0 0.2
2014-Oct-20 06:33N 36°26' E 025°25'7 6.5
2014-Oct-20 05:33N 36°32' E 025°25'1211.9
2014-Oct-20 04:34N 36°38' E 025°38'1211.7
2014-Oct-20 03:33N 36°44' E 025°51'1211.7
2014-Oct-20 02:33N 36°50' E 026°03'274 8.3
2014-Oct-18 17:31N 40°54' E 028°42'1514.1
2014-Oct-18 16:29N 41°01' E 028°59'116 6.4
2014-Oct-17 22:09N 40°19' E 026°36'3613.9
2014-Oct-17 19:32N 39°57' E 025°58'1716.5
2014-Oct-17 18:32N 39°43' E 025°46'11916.7
2014-Oct-17 11:25N 37°57' E 024°36'1517.1
2014-Oct-17 10:32N 37°50' E 024°20'16 2.0
2014-Oct-17 02:17N 37°39' E 024°05'1110.5
2014-Oct-17 01:13N 37°31' E 024°15'710.7
2014-Oct-17 00:33N 37°31' E 024°24'1111.4
2014-Oct-16 23:33N 37°31' E 024°38'1411.7
2014-Oct-16 22:22N 37°32' E 024°56'911.4
2014-Oct-16 21:33N 37°29' E 025°07'10 9.7
2014-Oct-16 20:32N 37°28' E 025°19'0 0.0
2014-Oct-16 19:32N 37°28' E 025°19'0 0.0
2014-Oct-16 18:32N 37°28' E 025°19'0 0.0
2014-Oct-16 17:34N 37°28' E 025°19'0 0.0
2014-Oct-16 16:32N 37°28' E 025°19'0 0.0
2014-Oct-16 15:32N 37°28' E 025°19'0 0.0
2014-Oct-16 14:32N 37°28' E 025°19'5 5.3
2014-Oct-16 13:32N 37°33' E 025°21'1414.5
2014-Oct-16 12:33N 37°43' E 025°34'1514.8
2014-Oct-16 11:33N 37°54' E 025°47'1514.8
2014-Oct-16 10:32N 38°04' E 026°00'33 3.3
2014-Oct-16 00:33N 37°42' E 026°32'1515.1
2014-Oct-15 23:33N 37°30' E 026°43'1515.1
2014-Oct-15 22:33N 37°18' E 026°53'1615.9
2014-Oct-15 21:33N 37°04' E 027°03'1816.4
2014-Oct-15 20:26N 36°55' E 027°22'1415.8
2014-Oct-15 19:33N 36°41' E 027°20'103 2.4
2014-Oct-14 00:33N 35°33' E 025°43'6 5.9
2014-Oct-13 23:34N 35°39' E 025°40'6 5.9
2014-Oct-13 22:34N 35°44' E 025°37'6 5.9
2014-Oct-13 21:33N 35°50' E 025°35'6 5.9
2014-Oct-13 20:34N 35°55' E 025°32'6 5.6
2014-Oct-13 19:34N 36°00' E 025°29'6 5.7
2014-Oct-13 18:34N 36°06' E 025°27'6 5.6
2014-Oct-13 17:34N 36°11' E 025°24'6 5.5
2014-Oct-13 16:33N 36°16' E 025°22'7 6.7
2014-Oct-13 15:34N 36°23' E 025°23'3 2.5
2014-Oct-13 14:34N 36°25' E 025°25'0 0.0
2014-Oct-13 13:33N 36°25' E 025°25'0 0.0
2014-Oct-13 12:33N 36°25' E 025°25'0 0.0
2014-Oct-13 11:33N 36°25' E 025°25'0 0.0
2014-Oct-13 10:33N 36°25' E 025°25'0 0.0
2014-Oct-13 09:33N 36°25' E 025°25'0 0.0
2014-Oct-13 08:33N 36°25' E 025°25'0 0.0
2014-Oct-13 07:33N 36°25' E 025°25'0 0.0
2014-Oct-13 06:34N 36°25' E 025°25'0 0.4
2014-Oct-13 05:33N 36°25' E 025°25'9 8.8
2014-Oct-13 04:33N 36°34' E 025°26'1212.3
2014-Oct-13 03:33N 36°43' E 025°36'1312.5
2014-Oct-13 02:33N 36°52' E 025°47'1212.2
2014-Oct-13 01:33N 37°00' E 025°58'1212.2
2014-Oct-13 00:33N 37°08' E 026°10'1211.5
2014-Oct-12 23:32N 37°16' E 026°21'161 7.7
2014-Oct-12 02:33N 39°56' E 025°55'  

Dump ship's entire track history